メインページ
METAR-TAF:

METAR-TAF

空港 :

明野, 日本

明野駐屯地

緯度: 34-32N, 経度: 136-41E, 海抜: 6m

現時点の気象観測

当レポートは20時間49分前の03:05(UTC)に作成
の風 12kt、最大23ktの突風を伴う
気温 6°C
湿度 39%
気圧 1023 hPa
視程10km以上
高度3000ftの雲はほとんどない

METAR: RJOE 180305Z 35012G23KT 9999 FEW030 06/M07 Q1023 RMK 2CU030 A3021

時間: 08:54 (23:54 UTC)


TAF: 見つかりません

4,000以上の空港の気象観測と天気予報(METAR報とTAF報)

利用可能な観測所は地図上に黄色い丸と赤い丸で示す。

丸の上にカーソルを重ねると観測所名を参照できる。

次にクリックすると気象観測と天気予報を参照できる。

マップの切り替え:黒色「×」印の緑ボタンをクリックして拡大、「-」印の緑ボタンをクリックして縮小、緑色の三角印をクリックして隣りの地図に切り替え


METAR-TAF: